AFL635 VTSP-UNKL
Flight info
| Callsign | AFL635 |
|---|---|
| Flight time | N/A |
| Altitude | 33000 |
| Route | IGEVI Y5 MENEX G458 BKK W21 NOBER B346 LPB/N0498F350 B218 SAGAG/K0932S1070 A581 BIDRU A581 SGM W144 VEDPO/K0928S1100 W144 IGNAK W179 WFX W179 OMBON W195 W195 MORIT B480 UGSAR B480 BEGVO Y746 DARNO/K0900F360 P982 LAMSU N869 RO A311 LALOM |
| Aircraft | B77W/H-SDE1E2E3FGHIJ2J3J4J5M1RWXY/LB1D1 |
Departure
| Time | 2026-05-07 06:20 |
|---|---|
| Airport | Phuket International Airport (VTSP) |
Arrival
| Time | N/A |
|---|---|
| Airport | Krasnoyarsk International Airport (UNKL) |
| Time | Latitude | Longitude | Altitude | Speed | Heading |
|---|---|---|---|---|---|
| 2026-05-07 06:17 | 8.11202 | 98.30399 | 31 ft | 0 kts | 85° |
| 2026-05-07 06:19 | 8.11208 | 98.30476 | 32 ft | 41 kts | 85° |
| 2026-05-07 06:19 | 8.11262 | 98.31042 | 34 ft | 119 kts | 84° |
| 2026-05-07 06:19 | 8.11363 | 98.32103 | 61 ft | 182 kts | 84° |
| 2026-05-07 06:19 | 8.11513 | 98.33499 | 356 ft | 206 kts | 84° |
| 2026-05-07 06:20 | 8.11668 | 98.34953 | 1094 ft | 209 kts | 84° |
| 2026-05-07 06:20 | 8.11804 | 98.36410 | 1889 ft | 208 kts | 84° |
| 2026-05-07 06:20 | 8.11939 | 98.37895 | 2373 ft | 220 kts | 85° |
| 2026-05-07 06:20 | 8.12074 | 98.39488 | 2784 ft | 236 kts | 84° |
| 2026-05-07 06:21 | 8.12228 | 98.41178 | 3321 ft | 243 kts | 84° |
| 2026-05-07 06:21 | 8.12396 | 98.42914 | 3812 ft | 254 kts | 85° |
| 2026-05-07 06:21 | 8.12564 | 98.44708 | 4532 ft | 258 kts | 84° |
| 2026-05-07 06:21 | 8.12737 | 98.46521 | 5183 ft | 266 kts | 85° |
| 2026-05-07 06:22 | 8.13028 | 98.48386 | 5848 ft | 268 kts | 68° |
| 2026-05-07 06:22 | 8.15791 | 98.50872 | 7142 ft | 280 kts | 25° |
| 2026-05-07 06:22 | 8.17698 | 98.51380 | 7765 ft | 288 kts | 10° |
| 2026-05-07 06:23 | 8.19706 | 98.51579 | 8462 ft | 291 kts | 6° |
| 2026-05-07 06:23 | 8.21736 | 98.51709 | 9130 ft | 294 kts | 6° |
| 2026-05-07 06:23 | 8.23796 | 98.51838 | 9759 ft | 298 kts | 6° |
| 2026-05-07 06:23 | 8.25880 | 98.51982 | 10401 ft | 303 kts | 7° |
| 2026-05-07 06:24 | 8.28046 | 98.52149 | 10615 ft | 323 kts | 7° |
| 2026-05-07 06:24 | 8.30362 | 98.52344 | 10805 ft | 345 kts | 7° |
| 2026-05-07 06:24 | 8.32826 | 98.52559 | 10973 ft | 366 kts | 7° |
| 2026-05-07 06:24 | 8.35423 | 98.52790 | 11323 ft | 380 kts | 7° |
| 2026-05-07 06:25 | 8.38088 | 98.53034 | 11911 ft | 388 kts | 7° |
| 2026-05-07 06:25 | 8.40794 | 98.53284 | 12651 ft | 392 kts | 7° |
| 2026-05-07 06:25 | 8.43525 | 98.53540 | 13342 ft | 396 kts | 7° |
| 2026-05-07 06:25 | 8.46279 | 98.53804 | 14020 ft | 400 kts | 7° |
| 2026-05-07 06:26 | 8.49059 | 98.54062 | 14710 ft | 403 kts | 7° |
| 2026-05-07 06:26 | 8.51833 | 98.54317 | 15321 ft | 408 kts | 7° |
| 2026-05-07 06:26 | 8.54676 | 98.54582 | 15939 ft | 413 kts | 7° |
| 2026-05-07 06:26 | 8.57550 | 98.54852 | 16581 ft | 417 kts | 7° |
| 2026-05-07 06:27 | 8.60453 | 98.55125 | 17210 ft | 420 kts | 7° |
| 2026-05-07 06:27 | 8.63377 | 98.55403 | 17792 ft | 425 kts | 7° |
| 2026-05-07 06:27 | 8.66330 | 98.55682 | 18352 ft | 428 kts | 7° |
| 2026-05-07 06:27 | 8.69317 | 98.55964 | 18894 ft | 433 kts | 7° |
| 2026-05-07 06:28 | 8.72333 | 98.56248 | 19447 ft | 437 kts | 6° |
| 2026-05-07 06:28 | 8.75363 | 98.56536 | 19987 ft | 440 kts | 7° |
| 2026-05-07 06:28 | 8.78424 | 98.56826 | 20510 ft | 443 kts | 6° |
| 2026-05-07 06:28 | 8.81508 | 98.57116 | 21009 ft | 447 kts | 6° |
| 2026-05-07 06:29 | 8.84615 | 98.57411 | 21515 ft | 449 kts | 6° |
| 2026-05-07 06:29 | 8.87700 | 98.57703 | 21788 ft | 443 kts | 6° |
| 2026-05-07 06:29 | 8.90745 | 98.57991 | 21599 ft | 435 kts | 6° |
| 2026-05-07 06:29 | 8.93711 | 98.58271 | 21508 ft | 421 kts | 6° |
| 2026-05-07 06:30 | 8.96593 | 98.58542 | 21420 ft | 409 kts | 6° |
| 2026-05-07 06:30 | 8.99385 | 98.58806 | 21347 ft | 398 kts | 6° |
| 2026-05-07 06:30 | 9.02084 | 98.59061 | 21193 ft | 388 kts | 7° |
| 2026-05-07 06:30 | 9.04744 | 98.59312 | 20967 ft | 380 kts | 6° |
| 2026-05-07 06:31 | 9.07362 | 98.59558 | 20604 ft | 377 kts | 7° |
| 2026-05-07 06:31 | 9.09898 | 98.60061 | 20047 ft | 371 kts | 24° |
| 2026-05-07 06:31 | 9.12091 | 98.61407 | 19494 ft | 369 kts | 44° |
| 2026-05-07 06:31 | 9.13702 | 98.63394 | 19075 ft | 364 kts | 62° |
| 2026-05-07 06:32 | 9.14603 | 98.65712 | 18688 ft | 359 kts | 79° |
| 2026-05-07 06:32 | 9.14759 | 98.68204 | 18290 ft | 355 kts | 97° |
| 2026-05-07 06:32 | 9.14134 | 98.70600 | 17884 ft | 352 kts | 115° |
| 2026-05-07 06:32 | 9.12805 | 98.72670 | 17440 ft | 351 kts | 133° |
| 2026-05-07 06:33 | 9.10904 | 98.74204 | 16985 ft | 351 kts | 150° |
| 2026-05-07 06:33 | 9.08642 | 98.75138 | 16592 ft | 351 kts | 164° |
| 2026-05-07 06:33 | 9.06230 | 98.75413 | 16172 ft | 349 kts | 181° |
| 2026-05-07 06:33 | 9.03807 | 98.75202 | 15712 ft | 350 kts | 184° |
| 2026-05-07 06:34 | 9.01389 | 98.74937 | 15274 ft | 349 kts | 184° |
| 2026-05-07 06:34 | 8.98985 | 98.74680 | 14900 ft | 346 kts | 184° |
| 2026-05-07 06:34 | 8.96619 | 98.74447 | 14890 ft | 338 kts | 183° |
| 2026-05-07 06:34 | 8.94300 | 98.74233 | 14865 ft | 343 kts | 183° |
| 2026-05-07 06:35 | 8.91871 | 98.74016 | 14857 ft | 347 kts | 182° |
| 2026-05-07 06:35 | 8.89478 | 98.73707 | 14848 ft | 347 kts | 194° |
| 2026-05-07 06:35 | 8.87284 | 98.72661 | 14872 ft | 354 kts | 214° |
| 2026-05-07 06:35 | 8.85508 | 98.70925 | 14859 ft | 359 kts | 232° |
| 2026-05-07 06:36 | 8.84296 | 98.68709 | 14875 ft | 362 kts | 250° |
| 2026-05-07 06:36 | 8.83806 | 98.66250 | 14851 ft | 360 kts | 269° |
| 2026-05-07 06:36 | 8.84134 | 98.63746 | 14848 ft | 356 kts | 289° |
| 2026-05-07 06:36 | 8.85224 | 98.61552 | 14856 ft | 354 kts | 308° |
| 2026-05-07 06:37 | 8.86959 | 98.59802 | 14866 ft | 353 kts | 327° |
| 2026-05-07 06:37 | 8.89127 | 98.58663 | 14886 ft | 351 kts | 342° |
| 2026-05-07 06:37 | 8.91499 | 98.58121 | 14856 ft | 349 kts | 0° |
| 2026-05-07 06:37 | 8.93899 | 98.58250 | 14881 ft | 345 kts | 8° |
| 2026-05-07 06:38 | 8.96293 | 98.58501 | 14873 ft | 347 kts | 8° |
| 2026-05-07 06:38 | 8.98699 | 98.58758 | 14873 ft | 348 kts | 8° |
| 2026-05-07 06:38 | 9.01125 | 98.59001 | 14863 ft | 350 kts | 7° |
| 2026-05-07 06:38 | 9.03545 | 98.59226 | 14853 ft | 350 kts | 7° |
| 2026-05-07 06:39 | 9.05970 | 98.59441 | 14863 ft | 350 kts | 7° |
| 2026-05-07 06:39 | 9.08387 | 98.59669 | 14847 ft | 345 kts | 11° |
| 2026-05-07 06:39 | 9.10610 | 98.60450 | 14854 ft | 337 kts | 34° |
| 2026-05-07 06:39 | 9.12329 | 98.62019 | 14873 ft | 332 kts | 55° |
| 2026-05-07 06:40 | 9.13409 | 98.64065 | 14878 ft | 331 kts | 73° |
| 2026-05-07 06:40 | 9.13796 | 98.66313 | 14876 ft | 330 kts | 90° |
| 2026-05-07 06:40 | 9.13431 | 98.68627 | 14858 ft | 332 kts | 110° |
| 2026-05-07 06:40 | 9.12314 | 98.70664 | 14854 ft | 334 kts | 129° |
| 2026-05-07 06:41 | 9.10550 | 98.72200 | 14863 ft | 339 kts | 149° |
| 2026-05-07 06:41 | 9.08388 | 98.73088 | 14868 ft | 343 kts | 165° |
| 2026-05-07 06:41 | 9.06008 | 98.73232 | 14858 ft | 344 kts | 182° |
| 2026-05-07 06:41 | 9.03618 | 98.73002 | 14845 ft | 346 kts | 183° |
| 2026-05-07 06:42 | 9.01231 | 98.72795 | 14885 ft | 345 kts | 184° |
| 2026-05-07 06:42 | 8.98827 | 98.72528 | 14864 ft | 349 kts | 184° |
| 2026-05-07 06:42 | 8.96407 | 98.72272 | 14866 ft | 352 kts | 183° |
| 2026-05-07 06:42 | 8.94755 | 98.72114 | 14876 ft | 353 kts | 183° |
| 2026-05-07 06:43 | 8.89565 | 98.71084 | 14861 ft | 348 kts | 209° |
| 2026-05-07 06:43 | 8.87718 | 98.69489 | 14875 ft | 355 kts | 231° |
| 2026-05-07 06:43 | 8.87249 | 98.68830 | 14869 ft | 357 kts | 238° |
| 2026-05-07 06:44 | 8.86167 | 98.64451 | 14865 ft | 363 kts | 276° |
| 2026-05-07 06:44 | 8.86849 | 98.62017 | 14844 ft | 359 kts | 299° |
| 2026-05-07 06:44 | 8.88349 | 98.60048 | 14862 ft | 353 kts | 321° |
| 2026-05-07 06:44 | 8.90434 | 98.58781 | 14867 ft | 349 kts | 342° |
| 2026-05-07 06:45 | 8.92788 | 98.58246 | 14860 ft | 346 kts | 0° |
| 2026-05-07 06:45 | 8.95168 | 98.58377 | 14870 ft | 343 kts | 7° |
| 2026-05-07 06:45 | 8.96745 | 98.58537 | 14872 ft | 345 kts | 8° |
| 2026-05-07 06:45 | 8.99951 | 98.58877 | 14863 ft | 348 kts | 7° |
| 2026-05-07 06:46 | 9.01544 | 98.59035 | 14867 ft | 348 kts | 7° |
| 2026-05-07 06:46 | 9.02362 | 98.59113 | 14863 ft | 349 kts | 7° |